Time;durP1;ratioP1;P1;durP2;ratioP2;P2;SDS_P1;SDS_P2;PMS_P1;PMS_P2;Temp;Humidity;BMP_temperature;BMP_pressure;BME280_temperature;BME280_humidity;BME280_pressure;Samples;Min_cycle;Max_cycle;Signal;HPM_P1;HPM_P2
2021/05/11 00:00:30;;;;;;;5.22;2.67;;;;;;;;;;5056330;28;20173;-71
2021/05/11 00:02:55;;;;;;;9.07;2.88;;;;;;;;;;5058389;28;20232;-69
2021/05/11 00:05:21;;;;;;;9.02;2.92;;;;;;;;;;5059693;28;20577;-71
2021/05/11 00:07:46;;;;;;;11.55;3.10;;;;;;;;;;5057993;28;20185;-70
2021/05/11 00:10:11;;;;;;;8.63;2.58;;;;;;;;;;5062663;28;20174;-71
2021/05/11 00:12:37;;;;;;;4.43;2.63;;;;;;;;;;5058316;28;20246;-71
2021/05/11 00:15:03;;;;;;;9.13;2.80;;;;;;;;;;5061457;28;20174;-69
2021/05/11 00:17:28;;;;;;;6.35;2.53;;;;;;;;;;5058437;28;20689;-70
2021/05/11 00:19:53;;;;;;;5.57;2.17;;;;;;;;;;5057135;28;20220;-70
2021/05/11 00:22:18;;;;;;;7.32;2.53;;;;;;;;;;5065238;28;20196;-71
2021/05/11 00:24:43;;;;;;;9.82;2.33;;;;;;;;;;5055887;28;20593;-69
2021/05/11 00:27:09;;;;;;;9.18;2.67;;;;;;;;;;5067901;28;20199;-70
2021/05/11 00:29:34;;;;;;;6.43;2.13;;;;;;;;;;5060879;28;20169;-70
2021/05/11 00:31:59;;;;;;;6.07;2.58;;;;;;;;;;5058315;28;20715;-70
2021/05/11 00:34:24;;;;;;;7.22;2.50;;;;;;;;;;5062710;28;20184;-70
2021/05/11 00:36:49;;;;;;;10.20;2.85;;;;;;;;;;5062755;28;20732;-71
2021/05/11 00:39:15;;;;;;;6.30;2.28;;;;;;;;;;5066912;28;20186;-70
2021/05/11 00:41:40;;;;;;;8.43;2.95;;;;;;;;;;5059383;28;20284;-70
2021/05/11 00:44:25;;;;;;;9.20;2.78;;;;;;;;;;5064706;28;20201;-71
2021/05/11 00:46:57;;;;;;;6.55;2.50;;;;;;;;;;5063281;28;20235;-70
2021/05/11 00:49:23;;;;;;;6.57;2.28;;;;;;;;;;5060644;28;20197;-71
2021/05/11 00:51:49;;;;;;;9.07;2.47;;;;;;;;;;5061200;28;20193;-70
2021/05/11 00:54:14;;;;;;;6.32;2.67;;;;;;;;;;5058338;28;20174;-69
2021/05/11 00:56:40;;;;;;;6.20;2.58;;;;;;;;;;5063648;28;20172;-70
2021/05/11 00:59:11;;;;;;;8.23;2.50;;;;;;;;;;5056126;28;20205;-70
2021/05/11 01:01:36;;;;;;;5.72;2.22;;;;;;;;;;5060046;28;20254;-71
2021/05/11 01:04:01;;;;;;;7.75;2.47;;;;;;;;;;5055899;28;20174;-71
2021/05/11 01:06:26;;;;;;;7.72;3.03;;;;;;;;;;5064534;28;20217;-70
2021/05/11 01:08:52;;;;;;;6.18;2.38;;;;;;;;;;5064029;28;20172;-68
2021/05/11 01:11:17;;;;;;;7.75;2.50;;;;;;;;;;5062764;28;20181;-70
2021/05/11 01:13:42;;;;;;;6.50;2.30;;;;;;;;;;5059486;28;20275;-70
2021/05/11 01:16:07;;;;;;;7.63;2.30;;;;;;;;;;5068897;28;20192;-70
2021/05/11 01:18:35;;;;;;;9.27;2.78;;;;;;;;;;5060884;28;20201;-70
2021/05/11 01:21:16;;;;;;;7.55;3.10;;;;;;;;;;5063364;28;20217;-70
2021/05/11 01:23:58;;;;;;;5.65;2.00;;;;;;;;;;5057565;28;20201;-70
2021/05/11 01:26:30;;;;;;;6.90;2.75;;;;;;;;;;5056935;28;20177;-70
2021/05/11 01:29:09;;;;;;;8.38;2.45;;;;;;;;;;5068321;28;20192;-70
2021/05/11 01:31:56;;;;;;;9.53;3.07;;;;;;;;;;5056099;28;20204;-70
2021/05/11 01:53:00;;;;;;;5.38;2.20;;;;;;;;;;5057335;28;20347;-70
2021/05/11 01:55:37;;;;;;;3.40;2.10;;;;;;;;;;5055018;28;20251;-70
2021/05/11 02:25:02;;;;;;;6.23;2.40;;;;;;;;;;5056088;28;20189;-70
2021/05/11 02:27:27;;;;;;;8.50;2.55;;;;;;;;;;5061666;28;20222;-70
2021/05/11 02:29:52;;;;;;;5.57;2.63;;;;;;;;;;5060684;28;20177;-70
2021/05/11 02:32:18;;;;;;;5.43;2.80;;;;;;;;;;5061328;28;20250;-70
2021/05/11 02:34:44;;;;;;;5.97;2.30;;;;;;;;;;5055779;28;20225;-71
2021/05/11 02:37:09;;;;;;;6.25;2.25;;;;;;;;;;5056150;28;20300;-70
2021/05/11 02:39:34;;;;;;;5.03;2.40;;;;;;;;;;5062249;28;20195;-70
2021/05/11 02:41:59;;;;;;;6.33;2.97;;;;;;;;;;5053572;28;20262;-69
2021/05/11 02:44:24;;;;;;;7.10;2.80;;;;;;;;;;5065622;28;20169;-69
2021/05/11 02:46:50;;;;;;;7.10;2.23;;;;;;;;;;5052936;28;20671;-67
2021/05/11 02:49:17;;;;;;;6.10;2.57;;;;;;;;;;5058938;28;20185;-69
2021/05/11 02:51:42;;;;;;;4.93;2.40;;;;;;;;;;5055187;28;20191;-70
2021/05/11 02:54:08;;;;;;;7.77;2.77;;;;;;;;;;5057549;28;20632;-70
2021/05/11 02:56:33;;;;;;;5.63;2.30;;;;;;;;;;5061313;28;20169;-70
2021/05/11 02:58:58;;;;;;;5.93;2.53;;;;;;;;;;5052786;28;20251;-68
2021/05/11 03:01:23;;;;;;;8.40;3.23;;;;;;;;;;5063758;28;20235;-70
2021/05/11 03:03:48;;;;;;;6.80;2.60;;;;;;;;;;5051758;28;20174;-70
2021/05/11 03:06:14;;;;;;;7.10;2.83;;;;;;;;;;5063550;28;20181;-70
2021/05/11 03:08:44;;;;;;;3.93;2.30;;;;;;;;;;5056534;28;20231;-70
2021/05/11 03:11:09;;;;;;;8.07;2.80;;;;;;;;;;5058517;28;20264;-71
2021/05/11 03:13:34;;;;;;;4.00;2.37;;;;;;;;;;5058222;28;20260;-72
2021/05/11 03:15:59;;;;;;;10.23;3.17;;;;;;;;;;5054242;28;20177;-71
2021/05/11 03:18:24;;;;;;;9.53;2.63;;;;;;;;;;5058738;28;20304;-71
2021/05/11 03:20:50;;;;;;;7.77;2.83;;;;;;;;;;5064371;28;20181;-72
2021/05/11 03:23:15;;;;;;;5.77;2.57;;;;;;;;;;5056043;28;20194;-68
2021/05/11 03:25:40;;;;;;;5.30;2.63;;;;;;;;;;5056597;28;20176;-70
2021/05/11 03:28:05;;;;;;;4.40;2.90;;;;;;;;;;5062353;28;20625;-70
2021/05/11 03:30:30;;;;;;;6.13;2.93;;;;;;;;;;5055846;28;20697;-70
2021/05/11 03:32:55;;;;;;;8.80;2.80;;;;;;;;;;5053181;28;20206;-69
2021/05/11 03:35:21;;;;;;;8.07;2.87;;;;;;;;;;5064560;28;20173;-69
2021/05/11 03:37:46;;;;;;;7.83;3.33;;;;;;;;;;5053016;28;20201;-70
2021/05/11 03:40:11;;;;;;;6.63;2.63;;;;;;;;;;5062436;28;20185;-69
2021/05/11 03:42:41;;;;;;;5.73;3.33;;;;;;;;;;5051216;28;20202;-70
2021/05/11 03:45:08;;;;;;;6.87;3.20;;;;;;;;;;5052783;28;20207;-70
2021/05/11 03:47:44;;;;;;;6.70;3.40;;;;;;;;;;5054219;28;20235;-70
2021/05/11 03:50:12;;;;;;;6.47;2.60;;;;;;;;;;5062621;28;20184;-72
2021/05/11 03:52:37;;;;;;;8.03;3.23;;;;;;;;;;5063672;28;20248;-70
2021/05/11 03:55:02;;;;;;;8.13;2.90;;;;;;;;;;5051160;28;20186;-70
2021/05/11 03:57:27;;;;;;;5.57;2.70;;;;;;;;;;5058293;28;20686;-69
2021/05/11 03:59:53;;;;;;;5.20;2.77;;;;;;;;;;5060490;28;20204;-69
2021/05/11 04:02:18;;;;;;;5.33;2.70;;;;;;;;;;5064788;28;20208;-70
2021/05/11 04:04:43;;;;;;;6.43;3.10;;;;;;;;;;5056729;28;20172;-69
2021/05/11 04:07:10;;;;;;;7.17;3.03;;;;;;;;;;5056408;28;20178;-69
2021/05/11 04:09:42;;;;;;;9.53;3.43;;;;;;;;;;5061140;28;20177;-70
2021/05/11 04:17:28;;;;;;;8.33;3.77;;;;;;;;;;5053852;28;20231;-69
2021/05/11 04:19:53;;;;;;;7.03;3.27;;;;;;;;;;5056209;28;20628;-72
2021/05/11 04:22:18;;;;;;;6.47;3.00;;;;;;;;;;5060016;28;20196;-70
2021/05/11 04:24:43;;;;;;;6.57;3.03;;;;;;;;;;5052033;28;20690;-69
2021/05/11 04:27:09;;;;;;;6.20;3.80;;;;;;;;;;5064433;28;20197;-72
2021/05/11 04:29:34;;;;;;;8.73;4.07;;;;;;;;;;5058143;28;20200;-69
2021/05/11 04:32:00;;;;;;;5.83;3.20;;;;;;;;;;5054112;28;20201;-69
2021/05/11 04:34:25;;;;;;;4.90;3.00;;;;;;;;;;5053006;28;20260;-69
2021/05/11 04:36:50;;;;;;;5.63;3.40;;;;;;;;;;5057303;28;20208;-70
2021/05/11 04:39:15;;;;;;;7.83;3.43;;;;;;;;;;5058048;28;20248;-70
2021/05/11 04:41:40;;;;;;;8.90;3.47;;;;;;;;;;5054965;28;20212;-70
2021/05/11 04:44:05;;;;;;;8.63;3.60;;;;;;;;;;5058432;28;20185;-70
2021/05/11 04:46:57;;;;;;;6.20;4.07;;;;;;;;;;5056281;28;20176;-71
2021/05/11 04:49:24;;;;;;;7.87;2.97;;;;;;;;;;5058971;28;20169;-70
2021/05/11 04:51:49;;;;;;;6.03;3.20;;;;;;;;;;5071082;28;20247;-69
2021/05/11 04:54:14;;;;;;;8.30;3.63;;;;;;;;;;5065833;28;20619;-70
2021/05/11 04:56:39;;;;;;;8.20;3.50;;;;;;;;;;5058522;28;20177;-71
2021/05/11 04:59:04;;;;;;;6.63;2.93;;;;;;;;;;5060186;28;20205;-70
2021/05/11 05:01:29;;;;;;;6.30;3.43;;;;;;;;;;5066059;28;20204;-70
2021/05/11 05:03:57;;;;;;;6.70;2.93;;;;;;;;;;5059974;28;20212;-70
2021/05/11 05:06:23;;;;;;;9.73;3.33;;;;;;;;;;5063919;28;20207;-71
2021/05/11 05:08:48;;;;;;;13.07;4.03;;;;;;;;;;5058090;28;20204;-71
2021/05/11 05:11:14;;;;;;;10.83;4.77;;;;;;;;;;5058436;28;20182;-70
2021/05/11 05:13:39;;;;;;;9.43;4.33;;;;;;;;;;5064251;28;20189;-70
2021/05/11 05:16:04;;;;;;;9.63;4.37;;;;;;;;;;5061025;28;20189;-70
2021/05/11 05:18:30;;;;;;;5.23;3.20;;;;;;;;;;5060616;28;20205;-70
2021/05/11 05:20:55;;;;;;;7.13;3.97;;;;;;;;;;5059119;28;20205;-70
2021/05/11 05:23:27;;;;;;;7.63;4.00;;;;;;;;;;5059510;28;20209;-70
2021/05/11 05:26:07;;;;;;;9.13;3.50;;;;;;;;;;5054140;28;20220;-70
2021/05/11 05:28:36;;;;;;;8.23;3.50;;;;;;;;;;5056069;28;20190;-70
2021/05/11 05:31:02;;;;;;;8.13;4.30;;;;;;;;;;5058306;28;20185;-70
2021/05/11 05:33:31;;;;;;;10.98;4.38;;;;;;;;;;5052705;28;20572;-70
2021/05/11 05:35:56;;;;;;;6.15;4.28;;;;;;;;;;5057544;28;20425;-70
2021/05/11 05:38:22;;;;;;;7.32;4.55;;;;;;;;;;5054109;28;20236;-71
2021/05/11 05:40:54;;;;;;;10.32;4.50;;;;;;;;;;5056114;28;20227;-70
2021/05/11 05:43:19;;;;;;;10.15;4.20;;;;;;;;;;5057369;28;20193;-70
2021/05/11 05:45:44;;;;;;;9.77;4.55;;;;;;;;;;5060055;28;20661;-69
2021/05/11 05:48:10;;;;;;;8.50;4.55;;;;;;;;;;5051800;28;20181;-71
2021/05/11 05:50:35;;;;;;;8.88;4.88;;;;;;;;;;5055276;28;20250;-68
2021/05/11 05:53:02;;;;;;;6.45;4.07;;;;;;;;;;5052651;28;20197;-69
2021/05/11 05:55:28;;;;;;;8.55;4.25;;;;;;;;;;5051242;28;20601;-69
2021/05/11 05:57:53;;;;;;;10.30;4.32;;;;;;;;;;5054829;28;20194;-70
2021/05/11 06:00:19;;;;;;;5.60;3.80;;;;;;;;;;5052826;28;20176;-70
2021/05/11 06:02:46;;;;;;;7.15;4.28;;;;;;;;;;5051226;28;20209;-70
2021/05/11 06:05:12;;;;;;;13.57;4.72;;;;;;;;;;5053887;28;20173;-70
2021/05/11 06:07:38;;;;;;;12.18;4.47;;;;;;;;;;5057216;28;20178;-70
2021/05/11 06:10:04;;;;;;;9.05;4.47;;;;;;;;;;5055425;28;20200;-70
2021/05/11 06:12:40;;;;;;;8.48;3.72;;;;;;;;;;5048789;28;20199;-70
2021/05/11 06:17:33;;;;;;;8.05;5.03;;;;;;;;;;5055600;28;20209;-70
2021/05/11 06:19:59;;;;;;;8.05;4.40;;;;;;;;;;5051893;28;20261;-70
2021/05/11 06:22:24;;;;;;;8.43;4.60;;;;;;;;;;5058388;28;20326;-70
2021/05/11 06:24:49;;;;;;;13.40;4.55;;;;;;;;;;5058125;28;20181;-70
2021/05/11 06:27:14;;;;;;;9.75;3.80;;;;;;;;;;5061298;28;20176;-70
2021/05/11 06:29:42;;;;;;;12.18;5.32;;;;;;;;;;5057799;28;20938;-70
2021/05/11 06:32:08;;;;;;;8.05;3.97;;;;;;;;;;5051779;28;20201;-70
2021/05/11 06:34:34;;;;;;;10.40;5.15;;;;;;;;;;5050859;28;20527;-70
2021/05/11 06:36:59;;;;;;;11.13;5.38;;;;;;;;;;5051637;28;20185;-70
2021/05/11 06:39:25;;;;;;;9.85;4.85;;;;;;;;;;5054209;28;20177;-70
2021/05/11 06:41:52;;;;;;;14.82;5.38;;;;;;;;;;5053311;28;20193;-70
2021/05/11 06:47:27;;;;;;;8.80;4.95;;;;;;;;;;5060220;28;20575;-70
2021/05/11 06:54:58;;;;;;;7.07;4.40;;;;;;;;;;5061736;28;20231;-71
2021/05/11 06:57:24;;;;;;;10.15;4.57;;;;;;;;;;5055667;28;20188;-71
2021/05/11 06:59:49;;;;;;;10.30;6.35;;;;;;;;;;5067628;28;20557;-71
2021/05/11 07:02:14;;;;;;;9.45;5.43;;;;;;;;;;5050109;28;20193;-70
2021/05/11 07:04:40;;;;;;;9.35;6.22;;;;;;;;;;5058101;28;20196;-70
2021/05/11 07:07:08;;;;;;;10.07;5.85;;;;;;;;;;5057174;28;20273;-70
2021/05/11 07:09:52;;;;;;;9.10;5.60;;;;;;;;;;5057295;28;20185;-70
2021/05/11 07:15:02;;;;;;;13.13;5.97;;;;;;;;;;5050009;28;20231;-70
2021/05/11 07:17:28;;;;;;;8.48;5.55;;;;;;;;;;5055809;28;20205;-69
2021/05/11 07:19:53;;;;;;;9.07;5.43;;;;;;;;;;5056603;28;20165;-69
2021/05/11 07:22:19;;;;;;;8.50;5.28;;;;;;;;;;5057506;28;20690;-70
2021/05/11 07:24:47;;;;;;;9.07;5.35;;;;;;;;;;5065703;28;20223;-71
2021/05/11 07:27:35;;;;;;;9.43;5.88;;;;;;;;;;5055153;28;20657;-70
2021/05/11 07:30:12;;;;;;;10.60;5.82;;;;;;;;;;5056508;28;20228;-69
2021/05/11 07:32:38;;;;;;;11.10;6.47;;;;;;;;;;5064085;28;20607;-69
2021/05/11 07:35:05;;;;;;;11.15;6.25;;;;;;;;;;5061936;28;20296;-69
2021/05/11 07:37:30;;;;;;;10.95;6.82;;;;;;;;;;5063326;28;20204;-69
2021/05/11 07:39:55;;;;;;;16.73;7.00;;;;;;;;;;5064695;28;20219;-70
2021/05/11 07:42:20;;;;;;;10.43;6.70;;;;;;;;;;5062755;28;20192;-70
2021/05/11 07:44:48;;;;;;;9.50;5.93;;;;;;;;;;5055015;28;20571;-70
2021/05/11 07:47:22;;;;;;;9.00;6.05;;;;;;;;;;5056349;28;20306;-69
2021/05/11 08:16:01;;;;;;;10.15;5.78;;;;;;;;;;5058644;28;20479;-70
2021/05/11 08:29:39;;;;;;;11.05;6.05;;;;;;;;;;5071230;28;20206;-70
2021/05/11 08:32:04;;;;;;;8.98;5.53;;;;;;;;;;5065224;28;20216;-69
2021/05/11 08:34:29;;;;;;;11.80;6.07;;;;;;;;;;5061968;28;20177;-70
2021/05/11 08:36:55;;;;;;;11.70;6.90;;;;;;;;;;5065879;28;20865;-70
2021/05/11 08:39:21;;;;;;;14.75;7.20;;;;;;;;;;5061403;28;20467;-70
2021/05/11 08:41:46;;;;;;;12.48;6.32;;;;;;;;;;5062866;28;20666;-69
2021/05/11 08:44:15;;;;;;;9.47;6.73;;;;;;;;;;5057836;28;20177;-69
2021/05/11 08:46:41;;;;;;;8.88;6.03;;;;;;;;;;5054759;28;20939;-69
2021/05/11 08:49:07;;;;;;;9.70;6.50;;;;;;;;;;5067559;28;20177;-71
2021/05/11 08:51:40;;;;;;;15.50;6.57;;;;;;;;;;5072746;28;20193;-70
2021/05/11 08:54:18;;;;;;;12.80;6.50;;;;;;;;;;5063262;28;20184;-69
2021/05/11 09:15:48;;;;;;;9.57;7.03;;;;;;;;;;5055716;28;20196;-69
2021/05/11 09:23:55;;;;;;;13.55;7.35;;;;;;;;;;5057351;28;20303;-70
2021/05/11 09:26:34;;;;;;;11.25;7.80;;;;;;;;;;5058117;28;20205;-70
2021/05/11 09:29:04;;;;;;;10.77;7.53;;;;;;;;;;5055373;28;20172;-70
2021/05/11 09:34:19;;;;;;;10.63;6.88;;;;;;;;;;5057475;28;20204;-69
2021/05/11 09:58:29;;;;;;;11.02;8.15;;;;;;;;;;5060893;28;20201;-71
2021/05/11 10:40:31;;;;;;;19.83;10.00;;;;;;;;;;5066346;28;20180;-72
2021/05/11 10:48:25;;;;;;;12.90;8.68;;;;;;;;;;5063183;28;20188;-70
2021/05/11 10:50:53;;;;;;;16.13;8.00;;;;;;;;;;5066524;28;20172;-71
2021/05/11 10:53:37;;;;;;;16.67;8.45;;;;;;;;;;5064351;28;20292;-68
2021/05/11 10:56:20;;;;;;;11.30;8.00;;;;;;;;;;5055626;28;20238;-70
2021/05/11 10:59:05;;;;;;;13.45;7.68;;;;;;;;;;5057336;28;20205;-70
2021/05/11 11:01:35;;;;;;;11.10;7.50;;;;;;;;;;5061253;28;20275;-69
2021/05/11 11:04:11;;;;;;;10.50;8.27;;;;;;;;;;5062929;28;20173;-71
2021/05/11 11:06:55;;;;;;;14.02;7.70;;;;;;;;;;5059418;28;20170;-70
2021/05/11 11:09:20;;;;;;;9.45;7.20;;;;;;;;;;5054934;28;20193;-70
2021/05/11 11:11:46;;;;;;;9.93;6.70;;;;;;;;;;5059825;28;20193;-70
2021/05/11 11:14:12;;;;;;;13.45;6.93;;;;;;;;;;5056062;28;20186;-70
2021/05/11 11:16:38;;;;;;;11.50;7.43;;;;;;;;;;5056555;28;20619;-70
2021/05/11 11:19:13;;;;;;;13.37;7.73;;;;;;;;;;5050047;28;20197;-71
2021/05/11 11:21:59;;;;;;;16.67;8.68;;;;;;;;;;5058937;28;20442;-69
2021/05/11 11:24:27;;;;;;;10.02;6.97;;;;;;;;;;5057032;28;20176;-70
2021/05/11 11:26:55;;;;;;;11.73;7.18;;;;;;;;;;5061693;28;20178;-70
2021/05/11 11:29:20;;;;;;;12.25;6.85;;;;;;;;;;5054884;28;20639;-70
2021/05/11 11:31:46;;;;;;;10.55;6.30;;;;;;;;;;5050905;28;20285;-70
2021/05/11 11:34:14;;;;;;;14.93;7.05;;;;;;;;;;5062003;28;20184;-70
2021/05/11 11:36:40;;;;;;;10.00;6.22;;;;;;;;;;5060461;28;20189;-71
2021/05/11 11:39:15;;;;;;;10.05;6.60;;;;;;;;;;5057569;28;20209;-70
2021/05/11 11:41:40;;;;;;;11.20;6.15;;;;;;;;;;5056182;28;20287;-70
2021/05/11 11:44:05;;;;;;;16.13;7.80;;;;;;;;;;5058871;28;20256;-70
2021/05/11 11:46:30;;;;;;;16.80;7.35;;;;;;;;;;5063535;28;20918;-70
2021/05/11 11:48:56;;;;;;;8.20;6.20;;;;;;;;;;5060437;28;20227;-70
2021/05/11 11:51:29;;;;;;;11.75;6.32;;;;;;;;;;5061967;28;20197;-70
2021/05/11 11:59:23;;;;;;;9.23;5.80;;;;;;;;;;5060693;28;20208;-70
2021/05/11 12:01:58;;;;;;;7.78;6.05;;;;;;;;;;5063381;28;20193;-69
2021/05/11 12:04:24;;;;;;;9.60;7.13;;;;;;;;;;5061710;28;20173;-70
2021/05/11 12:06:51;;;;;;;10.90;6.75;;;;;;;;;;5066944;28;20678;-70
2021/05/11 12:09:16;;;;;;;12.32;7.53;;;;;;;;;;5063728;28;20211;-70
2021/05/11 12:11:42;;;;;;;11.70;7.30;;;;;;;;;;5060395;28;20240;-69
2021/05/11 12:14:07;;;;;;;18.42;8.00;;;;;;;;;;5064295;28;20181;-69
2021/05/11 12:16:39;;;;;;;15.35;7.72;;;;;;;;;;5059171;28;20185;-69
2021/05/11 12:19:24;;;;;;;10.88;7.00;;;;;;;;;;5056256;28;20684;-70
2021/05/11 12:21:58;;;;;;;12.60;8.63;;;;;;;;;;5061767;28;20675;-70
2021/05/11 12:24:27;;;;;;;10.68;8.38;;;;;;;;;;5058746;28;20216;-69
2021/05/11 12:26:52;;;;;;;15.35;8.30;;;;;;;;;;5061104;28;20174;-70
2021/05/11 12:29:18;;;;;;;10.43;7.43;;;;;;;;;;5065945;28;20688;-70
2021/05/11 12:31:48;;;;;;;17.92;8.45;;;;;;;;;;5067535;28;20201;-70
2021/05/11 12:34:14;;;;;;;11.70;7.57;;;;;;;;;;5059802;28;20182;-70
2021/05/11 12:36:41;;;;;;;8.90;7.70;;;;;;;;;;5063690;28;20276;-71
2021/05/11 12:39:17;;;;;;;11.80;7.70;;;;;;;;;;5058826;28;20208;-71
2021/05/11 12:41:42;;;;;;;9.88;6.90;;;;;;;;;;5056769;28;20622;-71
2021/05/11 12:44:08;;;;;;;8.85;6.13;;;;;;;;;;5053979;28;20178;-71
2021/05/11 12:46:36;;;;;;;12.50;6.78;;;;;;;;;;5057979;28;20310;-70
2021/05/11 12:49:02;;;;;;;9.50;6.57;;;;;;;;;;5059686;28;20196;-69
2021/05/11 12:51:40;;;;;;;12.43;6.13;;;;;;;;;;5061651;28;20276;-69
2021/05/11 12:54:22;;;;;;;17.20;7.00;;;;;;;;;;5053493;28;20185;-71
2021/05/11 13:04:53;;;;;;;8.20;4.30;;;;;;;;;;5068810;28;20169;-71
2021/05/11 13:23:21;;;;;;;17.48;4.80;;;;;;;;;;5066485;28;20211;-71
2021/05/11 13:25:52;;;;;;;14.25;3.35;;;;;;;;;;5056872;28;20173;-70
2021/05/11 13:28:36;;;;;;;11.32;3.05;;;;;;;;;;5054039;28;20498;-69
2021/05/11 13:31:09;;;;;;;10.13;3.40;;;;;;;;;;5065700;28;20188;-71
2021/05/11 13:36:32;;;;;;;8.13;2.50;;;;;;;;;;5061781;28;20209;-71
2021/05/11 13:38:57;;;;;;;7.43;3.17;;;;;;;;;;5059848;28;20201;-71
2021/05/11 13:41:22;;;;;;;6.20;2.70;;;;;;;;;;5065559;28;20189;-70
2021/05/11 13:43:47;;;;;;;5.63;2.50;;;;;;;;;;5057604;28;20430;-70
2021/05/11 13:46:12;;;;;;;4.80;2.23;;;;;;;;;;5064524;28;20457;-70
2021/05/11 13:48:40;;;;;;;5.53;2.60;;;;;;;;;;5061754;28;20431;-69
2021/05/11 13:51:18;;;;;;;4.60;2.45;;;;;;;;;;5068092;28;20849;-70
2021/05/11 13:53:46;;;;;;;5.47;2.33;;;;;;;;;;5058116;28;20238;-70
2021/05/11 14:01:54;;;;;;;6.05;2.42;;;;;;;;;;5056987;28;20176;-70
2021/05/11 14:04:19;;;;;;;7.25;2.50;;;;;;;;;;5060850;28;20179;-69
2021/05/11 14:06:45;;;;;;;9.23;2.53;;;;;;;;;;5060874;28;20166;-70
2021/05/11 14:09:10;;;;;;;3.42;1.92;;;;;;;;;;5056032;28;20181;-70
2021/05/11 14:11:36;;;;;;;6.03;1.88;;;;;;;;;;5063980;28;20198;-70
2021/05/11 14:14:01;;;;;;;6.22;2.35;;;;;;;;;;5062681;28;20212;-69
2021/05/11 14:16:27;;;;;;;5.75;2.50;;;;;;;;;;5059475;28;20170;-70
2021/05/11 14:18:52;;;;;;;3.55;1.83;;;;;;;;;;5058063;28;20283;-70
2021/05/11 14:21:17;;;;;;;5.97;2.40;;;;;;;;;;5060893;28;20220;-70
2021/05/11 14:23:42;;;;;;;6.18;2.30;;;;;;;;;;5059929;28;20201;-69
2021/05/11 14:26:08;;;;;;;6.40;2.93;;;;;;;;;;5058914;28;20173;-69
2021/05/11 14:28:33;;;;;;;8.93;4.00;;;;;;;;;;5064896;28;20488;-70
2021/05/11 14:30:58;;;;;;;5.43;3.53;;;;;;;;;;5050917;28;20666;-68
2021/05/11 14:33:23;;;;;;;5.90;2.57;;;;;;;;;;5059293;28;20193;-70
2021/05/11 14:35:48;;;;;;;4.77;2.20;;;;;;;;;;5060713;28;20932;-69
2021/05/11 14:38:14;;;;;;;3.30;1.42;;;;;;;;;;5051329;28;20466;-70
2021/05/11 14:40:39;;;;;;;3.05;1.35;;;;;;;;;;5047989;28;20174;-70
2021/05/11 14:43:04;;;;;;;7.00;2.33;;;;;;;;;;5048798;28;20203;-70
2021/05/11 14:45:30;;;;;;;4.83;1.93;;;;;;;;;;5048150;28;20552;-70
2021/05/11 14:47:55;;;;;;;7.03;3.50;;;;;;;;;;5050180;28;20429;-69
2021/05/11 14:50:21;;;;;;;5.97;2.58;;;;;;;;;;5051437;28;20176;-69
2021/05/11 14:52:50;;;;;;;4.45;1.90;;;;;;;;;;5054373;28;20197;-70
2021/05/11 14:55:18;;;;;;;5.03;2.70;;;;;;;;;;5047298;28;20255;-68
2021/05/11 14:57:43;;;;;;;4.20;2.20;;;;;;;;;;5046510;28;20196;-69
2021/05/11 15:00:09;;;;;;;6.22;2.30;;;;;;;;;;5047830;28;20267;-70
2021/05/11 15:02:35;;;;;;;4.75;1.70;;;;;;;;;;5048171;28;20201;-69
2021/05/11 15:05:00;;;;;;;6.25;1.67;;;;;;;;;;5049376;28;20444;-68
2021/05/11 15:07:25;;;;;;;7.10;1.90;;;;;;;;;;5047550;28;20178;-70
2021/05/11 15:09:51;;;;;;;3.83;1.65;;;;;;;;;;5051489;28;20188;-69
2021/05/11 15:12:16;;;;;;;5.63;2.40;;;;;;;;;;5047016;28;20205;-70
2021/05/11 15:14:41;;;;;;;3.87;1.93;;;;;;;;;;5051237;28;20517;-70
2021/05/11 15:19:46;;;;;;;6.72;2.05;;;;;;;;;;5054460;28;20681;-70
2021/05/11 15:22:12;;;;;;;4.13;1.38;;;;;;;;;;5050480;28;20210;-69
2021/05/11 15:24:37;;;;;;;5.77;1.53;;;;;;;;;;5049680;28;20228;-70
2021/05/11 15:27:02;;;;;;;3.17;1.30;;;;;;;;;;5055665;28;21011;-68
2021/05/11 15:29:27;;;;;;;3.22;1.52;;;;;;;;;;5049024;28;20429;-69
2021/05/11 15:31:53;;;;;;;5.10;1.87;;;;;;;;;;5049225;28;20217;-69
2021/05/11 15:34:18;;;;;;;8.70;1.65;;;;;;;;;;5048714;28;20537;-69
2021/05/11 15:36:43;;;;;;;4.60;1.50;;;;;;;;;;5053421;28;20267;-69
2021/05/11 15:39:08;;;;;;;6.00;1.85;;;;;;;;;;5053569;28;20250;-70
2021/05/11 15:41:35;;;;;;;4.07;1.13;;;;;;;;;;5066437;28;20205;-69
2021/05/11 15:44:00;;;;;;;2.80;1.42;;;;;;;;;;5049940;28;20421;-69
2021/05/11 15:46:25;;;;;;;1.83;1.00;;;;;;;;;;5047884;28;20178;-70
2021/05/11 15:48:50;;;;;;;5.10;1.55;;;;;;;;;;5049459;28;21741;-69
2021/05/11 15:51:15;;;;;;;4.07;1.30;;;;;;;;;;5049079;28;20252;-69
2021/05/11 15:53:40;;;;;;;1.70;1.00;;;;;;;;;;5049353;28;20930;-69
2021/05/11 15:56:06;;;;;;;4.43;1.70;;;;;;;;;;5056215;28;20557;-70
2021/05/11 15:58:31;;;;;;;3.60;1.63;;;;;;;;;;5056781;28;20805;-69
2021/05/11 16:00:56;;;;;;;4.77;1.90;;;;;;;;;;5052211;28;20571;-70
2021/05/11 16:03:23;;;;;;;3.55;1.25;;;;;;;;;;5048657;28;20465;-68
2021/05/11 16:05:48;;;;;;;3.67;1.67;;;;;;;;;;5050248;28;20188;-70
2021/05/11 16:08:16;;;;;;;3.67;1.60;;;;;;;;;;5051876;28;20177;-69
2021/05/11 16:10:42;;;;;;;4.43;1.77;;;;;;;;;;5050772;28;20188;-69
2021/05/11 16:13:08;;;;;;;7.80;2.10;;;;;;;;;;5047399;28;20190;-70
2021/05/11 16:15:33;;;;;;;4.45;1.75;;;;;;;;;;5050458;28;20630;-70
2021/05/11 16:17:58;;;;;;;5.03;1.73;;;;;;;;;;5047524;28;20713;-69
2021/05/11 16:20:24;;;;;;;5.65;2.30;;;;;;;;;;5051421;28;20177;-70
2021/05/11 16:22:49;;;;;;;7.10;2.60;;;;;;;;;;5050414;28;20279;-70
2021/05/11 16:25:15;;;;;;;5.50;2.60;;;;;;;;;;5047862;28;20189;-70
2021/05/11 16:27:41;;;;;;;8.20;4.25;;;;;;;;;;5049647;28;20185;-70
2021/05/11 16:30:09;;;;;;;2.95;2.00;;;;;;;;;;5049583;28;20288;-70
2021/05/11 16:32:34;;;;;;;2.95;1.90;;;;;;;;;;5048980;28;20670;-69
2021/05/11 16:34:59;;;;;;;2.58;1.80;;;;;;;;;;5049489;28;20199;-69
2021/05/11 16:37:24;;;;;;;1.25;1.15;;;;;;;;;;5047002;28;20295;-70
2021/05/11 16:39:50;;;;;;;6.43;1.67;;;;;;;;;;5046740;28;20185;-70
2021/05/11 16:42:16;;;;;;;1.80;1.70;;;;;;;;;;5047017;28;20197;-69
2021/05/11 16:44:41;;;;;;;3.28;2.03;;;;;;;;;;5054572;28;20876;-71
2021/05/11 16:47:06;;;;;;;3.15;2.17;;;;;;;;;;5053144;28;20670;-69
2021/05/11 16:49:31;;;;;;;6.07;2.50;;;;;;;;;;5054269;28;20203;-71
2021/05/11 16:51:57;;;;;;;2.60;2.00;;;;;;;;;;5051625;28;20197;-69
2021/05/11 16:54:22;;;;;;;4.00;2.70;;;;;;;;;;5054531;28;20568;-71
2021/05/11 16:56:47;;;;;;;5.15;3.15;;;;;;;;;;5050868;28;20177;-71
2021/05/11 16:59:13;;;;;;;6.47;3.60;;;;;;;;;;5048644;28;20229;-68
2021/05/11 17:01:38;;;;;;;4.85;3.70;;;;;;;;;;5051752;28;20205;-69
2021/05/11 17:04:04;;;;;;;6.47;3.63;;;;;;;;;;5052685;28;20264;-70
2021/05/11 17:06:33;;;;;;;7.22;4.28;;;;;;;;;;5055431;28;20650;-71
2021/05/11 17:08:59;;;;;;;4.50;3.97;;;;;;;;;;5048373;28;20254;-69
2021/05/11 17:11:24;;;;;;;4.32;3.88;;;;;;;;;;5049227;28;20721;-69
2021/05/11 17:13:50;;;;;;;6.32;3.65;;;;;;;;;;5048327;28;20270;-71
2021/05/11 17:16:15;;;;;;;9.00;4.53;;;;;;;;;;5049334;28;20181;-69
2021/05/11 17:18:41;;;;;;;6.47;4.80;;;;;;;;;;5051782;28;20212;-69
2021/05/11 17:21:07;;;;;;;4.20;3.80;;;;;;;;;;5052321;28;20177;-68
2021/05/11 17:23:32;;;;;;;7.10;4.50;;;;;;;;;;5049365;28;20692;-71
2021/05/11 17:25:58;;;;;;;5.03;3.97;;;;;;;;;;5051543;28;20181;-71
2021/05/11 17:28:25;;;;;;;6.65;3.83;;;;;;;;;;5050263;28;20182;-70
2021/05/11 17:30:56;;;;;;;4.38;3.88;;;;;;;;;;5055369;28;20246;-70
2021/05/11 17:33:21;;;;;;;5.65;4.13;;;;;;;;;;5057226;28;20204;-70
2021/05/11 17:35:49;;;;;;;4.72;3.90;;;;;;;;;;5048775;28;20199;-70
2021/05/11 17:38:18;;;;;;;6.75;4.90;;;;;;;;;;5050046;28;20209;-71
2021/05/11 17:40:43;;;;;;;4.03;3.63;;;;;;;;;;5049524;28;20181;-69
2021/05/11 17:43:09;;;;;;;7.63;4.40;;;;;;;;;;5052010;28;20197;-69
2021/05/11 17:45:34;;;;;;;5.25;3.58;;;;;;;;;;5053815;28;20654;-70
2021/05/11 17:47:59;;;;;;;5.90;4.50;;;;;;;;;;5049032;28;20181;-70
2021/05/11 17:50:29;;;;;;;7.32;4.45;;;;;;;;;;5051332;28;20181;-70
2021/05/11 17:52:57;;;;;;;6.00;3.97;;;;;;;;;;5051757;28;20724;-69
2021/05/11 17:55:22;;;;;;;6.35;4.38;;;;;;;;;;5053390;28;20721;-71
2021/05/11 17:57:47;;;;;;;4.00;3.55;;;;;;;;;;5049089;28;20280;-68
2021/05/11 18:00:13;;;;;;;5.38;4.05;;;;;;;;;;5050980;28;20193;-69
2021/05/11 18:02:38;;;;;;;3.83;3.42;;;;;;;;;;5052689;28;20212;-72
2021/05/11 18:05:04;;;;;;;4.93;4.25;;;;;;;;;;5051311;28;20227;-69
2021/05/11 18:07:29;;;;;;;4.88;4.38;;;;;;;;;;5047717;28;21086;-71
2021/05/11 18:09:54;;;;;;;6.60;5.43;;;;;;;;;;5050747;28;20503;-70
2021/05/11 18:12:19;;;;;;;5.75;4.85;;;;;;;;;;5052915;28;20717;-71
2021/05/11 18:14:44;;;;;;;5.05;4.55;;;;;;;;;;5050817;28;20178;-69
2021/05/11 18:17:11;;;;;;;5.18;4.30;;;;;;;;;;5049025;28;20173;-69
2021/05/11 18:19:36;;;;;;;5.53;5.03;;;;;;;;;;5047946;28;20669;-69
2021/05/11 18:22:01;;;;;;;7.03;4.70;;;;;;;;;;5050079;28;20201;-68
2021/05/11 18:24:31;;;;;;;5.25;4.63;;;;;;;;;;5051071;28;20615;-70
2021/05/11 18:26:57;;;;;;;4.78;4.32;;;;;;;;;;5049015;28;20172;-68
2021/05/11 18:29:22;;;;;;;6.47;5.15;;;;;;;;;;5051331;28;20178;-69
2021/05/11 18:31:49;;;;;;;6.15;4.15;;;;;;;;;;5047958;28;20262;-70
2021/05/11 18:34:14;;;;;;;6.43;4.93;;;;;;;;;;5050896;28;21526;-70
2021/05/11 18:36:53;;;;;;;5.07;3.80;;;;;;;;;;5050733;28;20193;-70